createdAt,value
2023-04-16T00:01:34.063Z,46.57
2023-04-16T00:03:46.993Z,46.30
2023-04-16T00:06:00.525Z,46.36
2023-04-16T00:08:12.937Z,46.31
2023-04-16T00:10:25.785Z,46.35
2023-04-16T00:12:38.420Z,46.35
2023-04-16T00:14:51.564Z,46.36
2023-04-16T00:17:04.647Z,46.39
2023-04-16T00:19:17.165Z,46.49
2023-04-16T00:21:30.361Z,46.26
2023-04-16T00:23:42.958Z,46.30
2023-04-16T00:25:58.252Z,46.42
2023-04-16T00:28:11.256Z,46.42
2023-04-16T00:30:23.970Z,46.60
2023-04-16T00:32:36.474Z,46.71
2023-04-16T00:34:49.319Z,45.82
2023-04-16T00:37:04.121Z,45.69
2023-04-16T00:39:17.295Z,46.19
2023-04-16T00:41:29.849Z,46.13
2023-04-16T00:43:42.698Z,46.27
2023-04-16T00:45:57.186Z,46.33
2023-04-16T00:48:10.351Z,45.64
2023-04-16T00:50:23.122Z,45.39
2023-04-16T00:52:37.844Z,44.76
2023-04-16T00:54:51.059Z,44.45
2023-04-16T00:57:05.663Z,44.41
2023-04-16T00:59:18.505Z,44.23
2023-04-16T01:01:31.384Z,43.70
2023-04-16T01:03:46.773Z,43.89
2023-04-16T01:06:00.176Z,43.68
2023-04-16T01:08:18.168Z,43.56
2023-04-16T01:10:30.919Z,43.86
2023-04-16T01:12:44.124Z,43.81
2023-04-16T01:14:57.020Z,43.90
2023-04-16T01:17:09.591Z,43.98
2023-04-16T01:19:22.329Z,43.82
2023-04-16T01:21:37.156Z,43.85
2023-04-16T01:23:50.358Z,43.73
2023-04-16T01:26:03.689Z,43.81
2023-04-16T01:28:16.880Z,43.72
2023-04-16T01:30:29.592Z,43.57
2023-04-16T01:33:05.594Z,43.56
2023-04-16T01:35:19.257Z,43.72
2023-04-16T01:37:32.784Z,43.79
2023-04-16T01:39:45.498Z,43.65
2023-04-16T01:41:58.256Z,43.83
2023-04-16T01:44:10.794Z,43.89
2023-04-16T01:46:30.479Z,43.93
2023-04-16T01:48:43.863Z,43.98
2023-04-16T01:50:56.518Z,44.15
2023-04-16T01:53:10.699Z,44.10
2023-04-16T01:55:23.916Z,43.80
2023-04-16T01:57:36.713Z,44.07
2023-04-16T01:59:50.288Z,44.33
2023-04-16T02:02:04.684Z,44.04
2023-04-16T02:04:18.631Z,44.21
2023-04-16T02:06:33.158Z,44.10
2023-04-16T02:08:47.467Z,44.23
2023-04-16T02:11:00.719Z,44.51
2023-04-16T02:13:13.682Z,44.55
2023-04-16T02:15:27.248Z,44.64
2023-04-16T02:17:40.126Z,44.82
2023-04-16T02:19:54.816Z,44.97
2023-04-16T02:22:08.263Z,45.00
2023-04-16T02:24:21.226Z,45.12
2023-04-16T02:26:34.094Z,44.96
2023-04-16T02:28:50.955Z,45.33
2023-04-16T02:31:05.027Z,45.25
2023-04-16T02:33:23.832Z,45.39
2023-04-16T02:35:42.276Z,45.31
2023-04-16T02:37:54.906Z,45.27
2023-04-16T02:40:08.142Z,45.61
2023-04-16T02:42:22.077Z,45.72
2023-04-16T02:44:34.723Z,45.67
2023-04-16T02:46:47.251Z,45.81
2023-04-16T02:49:00.063Z,45.71
2023-04-16T02:51:13.752Z,45.61
2023-04-16T02:53:26.476Z,45.70
2023-04-16T02:55:39.200Z,45.72
2023-04-16T02:57:51.770Z,45.83
2023-04-16T03:00:05.650Z,45.77
2023-04-16T03:02:19.200Z,45.59
2023-04-16T03:04:32.160Z,45.48
2023-04-16T03:06:45.487Z,45.48
2023-04-16T03:08:58.440Z,45.55
2023-04-16T03:11:11.284Z,45.46
2023-04-16T03:13:24.169Z,45.48
2023-04-16T03:15:37.316Z,45.49
2023-04-16T03:17:49.858Z,45.73
2023-04-16T03:20:03.004Z,45.64
2023-04-16T03:22:15.935Z,45.77
2023-04-16T03:24:29.251Z,45.70
2023-04-16T03:26:42.335Z,45.65
2023-04-16T03:28:56.077Z,45.89
2023-04-16T03:31:09.248Z,45.86
2023-04-16T03:33:23.018Z,45.81
2023-04-16T03:35:36.665Z,45.70
2023-04-16T03:37:49.210Z,45.83
2023-04-16T03:40:02.402Z,45.93
2023-04-16T03:42:16.814Z,45.79
2023-04-16T03:44:29.251Z,45.82
2023-04-16T03:46:42.121Z,45.99
2023-04-16T03:48:54.973Z,45.86
2023-04-16T03:51:08.244Z,45.99
2023-04-16T03:53:20.995Z,46.15
2023-04-16T03:55:35.021Z,46.19
2023-04-16T03:57:47.952Z,46.25
2023-04-16T04:00:01.844Z,46.42
2023-04-16T04:02:27.378Z,46.41
2023-04-16T04:04:43.172Z,46.60
2023-04-16T04:06:56.356Z,46.75
2023-04-16T04:09:13.034Z,46.53
2023-04-16T04:11:25.714Z,46.58
2023-04-16T04:13:38.770Z,46.59
2023-04-16T04:15:52.365Z,46.89
2023-04-16T04:18:05.833Z,46.84
2023-04-16T04:20:19.369Z,47.03
2023-04-16T04:22:33.217Z,47.28
2023-04-16T04:24:46.209Z,47.43
2023-04-16T04:26:59.337Z,47.64
2023-04-16T04:29:13.125Z,47.60
2023-04-16T04:31:25.780Z,47.73
2023-04-16T04:33:39.063Z,48.08
2023-04-16T04:35:52.356Z,47.95
2023-04-16T04:38:05.366Z,48.15
2023-04-16T04:40:18.562Z,48.34
2023-04-16T04:42:31.578Z,48.50
2023-04-16T04:44:45.127Z,48.51
2023-04-16T04:46:58.258Z,48.58
2023-04-16T04:49:11.940Z,48.81
2023-04-16T04:51:24.456Z,48.90
2023-04-16T04:53:36.967Z,48.91
2023-04-16T04:55:53.224Z,49.02
2023-04-16T04:58:09.358Z,49.03
2023-04-16T05:00:22.451Z,49.53
2023-04-16T05:02:42.088Z,49.58
2023-04-16T05:04:54.802Z,49.65
2023-04-16T05:07:07.818Z,49.81
2023-04-16T05:09:20.298Z,49.86
2023-04-16T05:11:33.233Z,49.95
2023-04-16T05:13:46.413Z,50.10
2023-04-16T05:15:59.414Z,50.31
2023-04-16T05:18:12.473Z,50.28
2023-04-16T05:20:25.808Z,50.53
2023-04-16T05:22:38.820Z,50.48
2023-04-16T05:24:51.533Z,50.73
2023-04-16T05:27:03.928Z,50.72
2023-04-16T05:29:17.155Z,51.04
2023-04-16T05:31:29.836Z,51.20
2023-04-16T05:33:42.681Z,51.47
2023-04-16T05:35:55.698Z,51.82
2023-04-16T05:38:08.418Z,52.11
2023-04-16T05:40:22.144Z,52.36
2023-04-16T05:42:34.586Z,52.53
2023-04-16T05:44:47.219Z,52.74
2023-04-16T05:47:00.179Z,52.92
2023-04-16T05:49:14.227Z,53.22
2023-04-16T05:51:28.357Z,53.34
2023-04-16T05:53:40.928Z,53.53
2023-04-16T05:55:53.903Z,53.66
2023-04-16T05:58:07.170Z,53.87
2023-04-16T06:00:20.364Z,54.00
2023-04-16T06:02:33.794Z,54.53
2023-04-16T06:04:47.102Z,54.76
2023-04-16T06:06:59.572Z,55.13
2023-04-16T06:09:13.330Z,55.52
2023-04-16T06:11:26.018Z,55.75
2023-04-16T06:13:38.550Z,55.94
2023-04-16T06:15:51.253Z,56.09
2023-04-16T06:18:03.885Z,56.25
2023-04-16T06:20:18.709Z,56.34
2023-04-16T06:22:31.127Z,56.66
2023-04-16T06:24:43.977Z,56.73
2023-04-16T06:26:57.227Z,56.99
2023-04-16T06:29:12.953Z,57.11
2023-04-16T06:31:25.749Z,57.16
2023-04-16T06:33:38.632Z,57.35
2023-04-16T06:35:51.267Z,57.59
2023-04-16T06:38:03.936Z,57.58
2023-04-16T06:40:19.054Z,57.75
2023-04-16T06:42:32.038Z,57.93
2023-04-16T06:44:44.591Z,58.23
2023-04-16T06:46:57.436Z,58.32
2023-04-16T06:49:10.864Z,58.45
2023-04-16T06:51:23.858Z,58.75
2023-04-16T06:53:38.483Z,59.09
2023-04-16T06:55:51.716Z,59.15
2023-04-16T06:58:04.817Z,59.07
2023-04-16T07:00:19.350Z,59.37
2023-04-16T07:02:32.574Z,59.33
2023-04-16T07:04:45.516Z,59.25
2023-04-16T07:06:58.024Z,59.30
2023-04-16T07:09:11.278Z,59.32
2023-04-16T07:11:24.528Z,59.42
2023-04-16T07:13:37.012Z,59.43
2023-04-16T07:15:49.808Z,59.40
2023-04-16T07:18:02.539Z,59.46
2023-04-16T07:20:19.877Z,59.50
2023-04-16T07:22:32.431Z,59.56
2023-04-16T07:24:45.190Z,59.64
2023-04-16T07:26:58.020Z,59.85
2023-04-16T07:29:10.913Z,59.89
2023-04-16T07:31:23.494Z,59.94
2023-04-16T07:33:36.209Z,60.03
2023-04-16T07:35:49.051Z,60.12
2023-04-16T07:38:02.017Z,60.24
2023-04-16T07:40:16.241Z,60.20
2023-04-16T07:42:29.549Z,60.30
2023-04-16T07:44:42.170Z,60.32
2023-04-16T07:46:55.422Z,60.58
2023-04-16T07:49:08.871Z,60.42
2023-04-16T07:51:21.815Z,60.55
2023-04-16T07:53:34.309Z,60.68
2023-04-16T07:55:46.966Z,60.83
2023-04-16T07:57:59.495Z,60.90
2023-04-16T08:00:14.696Z,61.14
2023-04-16T08:02:27.654Z,61.39
2023-04-16T08:04:40.829Z,61.18
2023-04-16T08:06:53.769Z,61.38
2023-04-16T08:09:07.251Z,61.40
2023-04-16T08:11:20.449Z,61.49
2023-04-16T08:13:33.676Z,61.61
2023-04-16T08:15:46.773Z,61.66
2023-04-16T08:17:59.355Z,61.82
2023-04-16T08:20:16.925Z,61.73
2023-04-16T08:22:31.376Z,61.76
2023-04-16T08:24:44.113Z,61.97
2023-04-16T08:27:02.494Z,62.19
2023-04-16T08:29:26.172Z,62.22
2023-04-16T08:31:39.523Z,62.31
2023-04-16T08:33:52.127Z,62.48
2023-04-16T08:36:04.396Z,62.54
2023-04-16T08:38:16.977Z,62.60
2023-04-16T08:40:31.890Z,62.75
2023-04-16T08:42:48.757Z,62.93
2023-04-16T08:45:11.556Z,62.95
2023-04-16T08:47:26.886Z,62.77
2023-04-16T08:49:46.678Z,63.16
2023-04-16T08:52:00.628Z,63.17
2023-04-16T08:54:19.623Z,63.24
2023-04-16T08:56:34.617Z,63.16
2023-04-16T08:58:49.142Z,63.11
2023-04-16T09:01:02.310Z,63.29
2023-04-16T09:03:15.681Z,63.22
2023-04-16T09:05:30.015Z,62.97
2023-04-16T09:07:42.992Z,62.76
2023-04-16T09:09:58.004Z,62.51
2023-04-16T09:12:10.902Z,62.37
2023-04-16T09:14:23.578Z,62.25
2023-04-16T09:16:39.321Z,62.07
2023-04-16T09:18:52.448Z,61.81
2023-04-16T09:21:05.724Z,61.53
2023-04-16T09:23:18.502Z,61.45
2023-04-16T09:25:31.372Z,61.26
2023-04-16T09:27:44.451Z,60.76
2023-04-16T09:29:57.054Z,60.73
2023-04-16T09:32:12.265Z,60.61
2023-04-16T09:34:25.121Z,60.43
2023-04-16T09:36:39.014Z,60.32
2023-04-16T09:38:57.614Z,60.20
2023-04-16T09:41:19.572Z,60.05
2023-04-16T09:43:33.053Z,59.92
2023-04-16T09:45:54.885Z,59.56
2023-04-16T09:48:11.136Z,59.20
2023-04-16T09:50:23.859Z,59.11
2023-04-16T09:52:39.717Z,59.17
2023-04-16T09:54:56.624Z,59.05
2023-04-16T09:57:09.599Z,58.82
2023-04-16T09:59:26.895Z,59.07
2023-04-16T10:02:15.464Z,58.90
2023-04-16T10:04:28.853Z,58.97
2023-04-16T10:06:41.372Z,58.90
2023-04-16T10:08:58.075Z,58.49
2023-04-16T10:11:10.850Z,58.61
2023-04-16T10:13:23.822Z,58.58
2023-04-16T10:15:36.537Z,58.40
2023-04-16T10:17:49.902Z,58.55
2023-04-16T10:20:04.251Z,58.54
2023-04-16T10:22:17.230Z,58.23
2023-04-16T10:24:31.644Z,58.24
2023-04-16T10:26:45.296Z,58.13
2023-04-16T10:28:58.479Z,58.15
2023-04-16T10:31:12.763Z,58.30
2023-04-16T10:33:26.923Z,58.29
2023-04-16T10:35:42.305Z,58.59
2023-04-16T10:37:59.252Z,58.13
2023-04-16T10:40:28.351Z,58.12
2023-04-16T10:42:42.107Z,58.00
2023-04-16T10:44:54.485Z,58.28
2023-04-16T10:47:12.919Z,58.44
2023-04-16T10:49:26.957Z,58.14
2023-04-16T10:51:41.383Z,58.44
2023-04-16T10:53:54.077Z,58.48
2023-04-16T10:56:16.740Z,58.34
2023-04-16T10:58:35.453Z,58.43
2023-04-16T11:00:57.659Z,58.32
2023-04-16T11:03:10.380Z,58.37
2023-04-16T11:05:27.726Z,58.41
2023-04-16T11:07:41.043Z,58.56
2023-04-16T11:10:04.361Z,58.24
2023-04-16T11:12:19.715Z,58.35
2023-04-16T11:14:33.477Z,58.26
2023-04-16T11:16:48.727Z,58.25
2023-04-16T11:19:01.310Z,58.29
2023-04-16T11:21:16.503Z,58.50
2023-04-16T11:23:29.648Z,58.34
2023-04-16T11:25:42.632Z,58.47
2023-04-16T11:27:55.753Z,58.73
2023-04-16T11:30:11.233Z,58.82
2023-04-16T11:32:28.941Z,58.86
2023-04-16T11:34:49.360Z,59.02
2023-04-16T11:37:02.542Z,59.06
2023-04-16T11:39:15.101Z,59.40
2023-04-16T11:41:27.932Z,59.16
2023-04-16T11:43:40.449Z,59.43
2023-04-16T11:46:10.229Z,59.37
2023-04-16T11:48:52.109Z,59.35
2023-04-16T11:51:04.676Z,59.36
2023-04-16T11:53:17.361Z,59.28
2023-04-16T11:55:30.584Z,59.48
2023-04-16T11:57:43.374Z,59.74
2023-04-16T12:00:02.342Z,59.37
2023-04-16T12:02:41.045Z,59.46
2023-04-16T12:04:55.262Z,59.66
2023-04-16T12:07:16.024Z,59.45
2023-04-16T12:09:32.493Z,59.63
2023-04-16T12:11:48.303Z,59.47
2023-04-16T12:14:16.378Z,60.02
2023-04-16T12:16:31.414Z,59.73
2023-04-16T12:19:01.454Z,59.92
2023-04-16T12:21:14.042Z,60.14
2023-04-16T12:23:33.922Z,59.80
2023-04-16T12:25:50.987Z,59.95
2023-04-16T12:28:03.477Z,59.99
2023-04-16T12:30:18.987Z,60.09
2023-04-16T12:32:31.361Z,59.98
2023-04-16T12:34:59.019Z,60.38
2023-04-16T12:37:12.411Z,60.60
2023-04-16T12:39:24.909Z,60.35
2023-04-16T12:41:39.682Z,60.70
2023-04-16T12:43:52.256Z,60.86
2023-04-16T12:46:04.883Z,60.86
2023-04-16T12:48:17.678Z,60.82
2023-04-16T12:50:30.780Z,60.93
2023-04-16T12:52:43.402Z,60.94
2023-04-16T12:54:55.902Z,60.80
2023-04-16T12:57:08.677Z,61.15
2023-04-16T12:59:21.063Z,61.31
2023-04-16T13:01:33.595Z,61.57
2023-04-16T13:03:46.526Z,61.31
2023-04-16T13:05:59.050Z,61.53
2023-04-16T13:08:11.708Z,61.41
2023-04-16T13:10:24.631Z,61.38
2023-04-16T13:12:37.707Z,61.62
2023-04-16T13:14:50.674Z,61.51
2023-04-16T13:17:03.629Z,61.56
2023-04-16T13:19:16.981Z,61.87
2023-04-16T13:21:29.429Z,61.33
2023-04-16T13:23:42.864Z,61.90
2023-04-16T13:25:55.499Z,62.13
2023-04-16T13:28:08.741Z,62.07
2023-04-16T13:30:23.169Z,61.94
2023-04-16T13:32:35.738Z,62.06
2023-04-16T13:34:48.876Z,62.21
2023-04-16T13:37:04.214Z,62.07
2023-04-16T13:39:17.211Z,62.35
2023-04-16T13:41:29.896Z,62.23
2023-04-16T13:43:43.315Z,62.29
2023-04-16T13:45:56.095Z,62.35
2023-04-16T13:48:08.940Z,62.47
2023-04-16T13:50:21.996Z,62.52
2023-04-16T13:52:34.503Z,62.72
2023-04-16T13:54:50.151Z,62.49
2023-04-16T13:57:05.662Z,62.71
2023-04-16T13:59:18.689Z,62.91
2023-04-16T14:01:31.266Z,62.91
2023-04-16T14:03:44.239Z,62.97
2023-04-16T14:05:56.966Z,63.07
2023-04-16T14:08:09.520Z,62.97
2023-04-16T14:10:22.466Z,63.13
2023-04-16T14:12:35.176Z,63.18
2023-04-16T14:14:48.223Z,63.30
2023-04-16T14:17:02.554Z,63.58
2023-04-16T14:19:15.140Z,63.45
2023-04-16T14:21:28.162Z,63.17
2023-04-16T14:23:40.916Z,63.42
2023-04-16T14:25:54.042Z,63.41
2023-04-16T14:28:07.341Z,63.51
2023-04-16T14:30:20.839Z,63.61
2023-04-16T14:32:34.328Z,63.74
2023-04-16T14:34:46.802Z,63.49
2023-04-16T14:36:59.705Z,63.84
2023-04-16T14:39:12.934Z,63.77
2023-04-16T14:41:25.594Z,63.82
2023-04-16T14:43:39.932Z,63.73
2023-04-16T14:45:53.695Z,63.96
2023-04-16T14:48:06.422Z,64.06
2023-04-16T14:50:19.141Z,64.04
2023-04-16T14:52:32.541Z,64.03
2023-04-16T14:54:45.150Z,64.33
2023-04-16T14:56:57.591Z,64.35
2023-04-16T14:59:10.658Z,64.27
2023-04-16T15:01:23.940Z,64.71
2023-04-16T15:03:37.714Z,64.86
2023-04-16T15:05:56.037Z,64.93
2023-04-16T15:08:09.136Z,65.05
2023-04-16T15:10:21.973Z,65.17
2023-04-16T15:12:34.570Z,65.56
2023-04-16T15:14:47.163Z,65.12
2023-04-16T15:17:00.132Z,65.72
2023-04-16T15:19:13.414Z,65.54
2023-04-16T15:21:27.575Z,65.77
2023-04-16T15:23:39.964Z,65.90
2023-04-16T15:25:52.790Z,66.11
2023-04-16T15:28:05.561Z,66.36
2023-04-16T15:30:19.548Z,66.32
2023-04-16T15:32:32.576Z,66.62
2023-04-16T15:34:45.099Z,66.53
2023-04-16T15:36:57.586Z,66.63
2023-04-16T15:39:10.721Z,66.72
2023-04-16T15:41:23.469Z,66.92
2023-04-16T15:43:36.302Z,66.80
2023-04-16T15:45:48.921Z,67.10
2023-04-16T15:48:02.090Z,67.23
2023-04-16T15:50:17.277Z,67.68
2023-04-16T15:52:30.017Z,67.76
2023-04-16T15:54:42.474Z,67.87
2023-04-16T15:56:55.662Z,68.28
2023-04-16T15:59:09.272Z,67.94
2023-04-16T16:01:23.541Z,68.15
2023-04-16T16:03:37.209Z,68.49
2023-04-16T16:05:51.456Z,68.44
2023-04-16T16:08:04.485Z,68.81
2023-04-16T16:10:18.082Z,68.74
2023-04-16T16:12:30.669Z,69.06
2023-04-16T16:14:45.000Z,69.03
2023-04-16T16:16:57.988Z,68.91
2023-04-16T16:19:10.791Z,69.31
2023-04-16T16:21:24.089Z,69.43
2023-04-16T16:23:36.663Z,69.89
2023-04-16T16:25:49.335Z,69.77
2023-04-16T16:28:03.551Z,69.93
2023-04-16T16:30:18.464Z,69.90
2023-04-16T16:32:31.310Z,70.11
2023-04-16T16:34:44.496Z,70.54
2023-04-16T16:36:56.886Z,70.23
2023-04-16T16:39:09.705Z,70.71
2023-04-16T16:41:22.876Z,70.70
2023-04-16T16:43:35.425Z,70.57
2023-04-16T16:45:48.268Z,70.85
2023-04-16T16:48:01.182Z,70.95
2023-04-16T16:50:16.527Z,71.07
2023-04-16T16:52:30.437Z,70.97
2023-04-16T16:54:43.830Z,71.07
2023-04-16T16:56:56.264Z,71.51
2023-04-16T16:59:10.396Z,71.68
2023-04-16T17:01:23.765Z,71.90
2023-04-16T17:03:37.087Z,71.53
2023-04-16T17:05:50.150Z,72.10
2023-04-16T17:08:02.975Z,72.25
2023-04-16T17:10:21.636Z,72.50
2023-04-16T17:12:34.016Z,72.61
2023-04-16T17:14:47.787Z,72.36
2023-04-16T17:17:00.861Z,72.94
2023-04-16T17:19:13.964Z,73.26
2023-04-16T17:21:27.015Z,72.93
2023-04-16T17:23:41.207Z,73.57
2023-04-16T17:25:53.970Z,73.54
2023-04-16T17:28:06.694Z,73.77
2023-04-16T17:30:20.802Z,74.05
2023-04-16T17:32:34.605Z,74.12
2023-04-16T17:34:47.380Z,74.89
2023-04-16T17:37:00.229Z,74.87
2023-04-16T17:39:12.788Z,74.84
2023-04-16T17:41:25.475Z,74.77
2023-04-16T17:43:38.133Z,75.18
2023-04-16T17:45:50.790Z,74.78
2023-04-16T17:48:04.810Z,74.96
2023-04-16T17:50:18.208Z,75.23
2023-04-16T17:52:31.999Z,74.88
2023-04-16T17:54:45.121Z,75.41
2023-04-16T17:56:57.555Z,75.37
2023-04-16T17:59:10.182Z,75.18
2023-04-16T18:01:23.513Z,75.65
2023-04-16T18:03:36.932Z,75.63
2023-04-16T18:05:49.770Z,75.74
2023-04-16T18:08:02.528Z,75.38
2023-04-16T18:10:16.391Z,75.94
2023-04-16T18:12:28.874Z,75.87
2023-04-16T18:14:45.854Z,76.30
2023-04-16T18:16:59.333Z,76.31
2023-04-16T18:19:13.139Z,76.30
2023-04-16T18:21:25.758Z,75.86
2023-04-16T18:23:38.719Z,76.38
2023-04-16T18:25:52.649Z,76.23
2023-04-16T18:28:05.103Z,75.98
2023-04-16T18:30:25.716Z,75.50
2023-04-16T18:34:55.425Z,75.14
2023-04-16T18:37:07.930Z,75.06
2023-04-16T18:39:20.887Z,74.99
2023-04-16T18:41:33.805Z,75.22
2023-04-16T18:43:47.171Z,75.10
2023-04-16T18:46:00.435Z,75.29
2023-04-16T18:48:13.494Z,75.10
2023-04-16T18:50:26.247Z,74.78
2023-04-16T18:52:38.729Z,75.04
2023-04-16T18:54:51.251Z,75.27
2023-04-16T18:57:03.802Z,74.65
2023-04-16T18:59:16.294Z,75.18
2023-04-16T19:01:28.953Z,74.98
2023-04-16T19:03:42.041Z,74.49
2023-04-16T19:05:54.900Z,74.79
2023-04-16T19:08:07.538Z,74.72
2023-04-16T19:10:20.915Z,74.98
2023-04-16T19:12:33.463Z,74.93
2023-04-16T19:14:46.849Z,74.43
2023-04-16T19:16:59.665Z,74.58
2023-04-16T19:19:12.635Z,74.62
2023-04-16T19:21:25.766Z,74.60
2023-04-16T19:23:38.665Z,74.71
2023-04-16T19:25:51.962Z,74.65
2023-04-16T19:28:04.630Z,74.46
2023-04-16T19:30:19.728Z,74.65
2023-04-16T19:32:32.986Z,74.75
2023-04-16T19:34:45.883Z,75.10
2023-04-16T19:36:58.864Z,74.66
2023-04-16T19:39:11.852Z,74.95
2023-04-16T19:41:25.008Z,74.48
2023-04-16T19:43:38.138Z,74.60
2023-04-16T19:45:53.599Z,74.50
2023-04-16T19:48:06.092Z,74.71
2023-04-16T19:50:19.475Z,74.68
2023-04-16T19:52:32.180Z,74.70
2023-04-16T19:54:44.893Z,74.62
2023-04-16T19:56:58.239Z,74.64
2023-04-16T19:59:12.211Z,74.61
2023-04-16T20:01:25.198Z,74.19
2023-04-16T20:03:38.113Z,73.66
2023-04-16T20:05:53.982Z,74.01
2023-04-16T20:08:06.826Z,74.10
2023-04-16T20:10:19.469Z,74.07
2023-04-16T20:12:33.222Z,74.26
2023-04-16T20:14:45.979Z,74.06
2023-04-16T20:16:58.686Z,73.74
2023-04-16T20:19:12.151Z,73.36
2023-04-16T20:21:26.159Z,72.91
2023-04-16T20:23:39.003Z,72.80
2023-04-16T20:25:51.992Z,72.44
2023-04-16T20:28:04.760Z,71.96
2023-04-16T20:30:19.025Z,71.84
2023-04-16T20:32:32.350Z,71.94
2023-04-16T20:34:45.014Z,71.61
2023-04-16T20:36:59.058Z,71.28
2023-04-16T20:39:12.030Z,71.01
2023-04-16T20:41:26.157Z,70.32
2023-04-16T20:43:41.876Z,70.18
2023-04-16T20:45:55.638Z,69.96
2023-04-16T20:48:08.490Z,70.05
2023-04-16T20:50:21.711Z,70.16
2023-04-16T20:52:34.749Z,70.32
2023-04-16T20:54:48.301Z,70.26
2023-04-16T20:57:01.656Z,69.72
2023-04-16T20:59:16.241Z,69.95
2023-04-16T21:01:29.717Z,69.85
2023-04-16T21:03:42.547Z,70.12
2023-04-16T21:05:58.702Z,70.14
2023-04-16T21:08:11.743Z,70.53
2023-04-16T21:10:25.036Z,70.29
2023-04-16T21:12:37.877Z,70.11
2023-04-16T21:14:50.610Z,69.38
2023-04-16T21:17:03.604Z,68.99
2023-04-16T21:19:16.379Z,68.50
2023-04-16T21:21:29.394Z,68.88
2023-04-16T21:23:42.380Z,69.05
2023-04-16T21:25:55.405Z,69.28
2023-04-16T21:28:08.397Z,69.11
2023-04-16T21:30:22.512Z,69.00
2023-04-16T21:32:34.956Z,69.27
2023-04-16T21:34:47.447Z,69.69
2023-04-16T21:37:00.392Z,69.78
2023-04-16T21:39:13.354Z,69.54
2023-04-16T21:41:26.544Z,69.04
2023-04-16T21:43:39.432Z,69.13
2023-04-16T21:45:52.586Z,69.36
2023-04-16T21:48:05.116Z,69.49
2023-04-16T21:50:19.346Z,69.44
2023-04-16T21:52:33.789Z,69.79
2023-04-16T21:54:46.313Z,70.02
2023-04-16T21:56:59.238Z,69.49
2023-04-16T21:59:12.199Z,69.93
2023-04-16T22:01:25.314Z,70.54
2023-04-16T22:03:41.091Z,70.41
2023-04-16T22:05:54.241Z,70.48
2023-04-16T22:08:20.939Z,70.95
2023-04-16T22:10:36.940Z,70.68
2023-04-16T22:12:55.871Z,71.45
2023-04-16T22:15:09.182Z,71.96
2023-04-16T22:17:22.593Z,72.43
2023-04-16T22:19:35.939Z,72.59
2023-04-16T22:21:48.672Z,72.73
2023-04-16T22:24:01.948Z,73.07
2023-04-16T22:26:14.981Z,72.92
2023-04-16T22:28:27.682Z,72.32
2023-04-16T22:30:40.282Z,72.74
2023-04-16T22:32:53.617Z,72.72
2023-04-16T22:35:06.308Z,73.11
2023-04-16T22:37:19.169Z,73.15
2023-04-16T22:39:32.702Z,73.31
2023-04-16T22:41:45.377Z,71.77
2023-04-16T22:43:57.893Z,71.71
2023-04-16T22:46:10.920Z,71.88
2023-04-16T22:48:25.417Z,71.93
2023-04-16T22:50:38.242Z,71.67
2023-04-16T22:52:50.951Z,70.88
2023-04-16T22:55:03.607Z,70.01
2023-04-16T22:57:18.363Z,69.80
2023-04-16T22:59:32.113Z,69.40
2023-04-16T23:01:45.114Z,69.14
2023-04-16T23:03:58.235Z,68.98
2023-04-16T23:06:11.202Z,68.84
2023-04-16T23:08:24.114Z,68.46
2023-04-16T23:10:37.190Z,68.44
2023-04-16T23:12:50.051Z,68.45
2023-04-16T23:15:02.647Z,68.14
2023-04-16T23:17:15.974Z,68.45
2023-04-16T23:19:29.208Z,68.39
2023-04-16T23:21:41.836Z,68.23
2023-04-16T23:23:54.660Z,67.82
2023-04-16T23:26:07.581Z,67.99
2023-04-16T23:28:20.424Z,67.88
2023-04-16T23:30:32.927Z,68.04
2023-04-16T23:32:45.714Z,68.07
2023-04-16T23:34:58.415Z,68.54
2023-04-16T23:37:11.170Z,68.32
2023-04-16T23:39:24.256Z,68.68
2023-04-16T23:41:37.484Z,68.59
2023-04-16T23:43:50.584Z,68.62
2023-04-16T23:46:03.312Z,68.06
2023-04-16T23:48:15.905Z,67.52
2023-04-16T23:50:29.697Z,67.14
2023-04-16T23:52:45.558Z,67.35
2023-04-16T23:54:58.721Z,67.59
2023-04-16T23:57:11.466Z,67.66
2023-04-16T23:59:25.329Z,67.09
